createdAt,value
2023-03-06T00:02:05.397Z,117.00
2023-03-06T00:04:33.142Z,119.80
2023-03-06T00:07:00.775Z,124.73
2023-03-06T00:09:28.472Z,121.27
2023-03-06T00:11:56.152Z,117.60
2023-03-06T00:14:25.184Z,117.60
2023-03-06T00:16:56.024Z,124.73
2023-03-06T00:19:24.250Z,105.97
2023-03-06T00:21:51.993Z,120.33
2023-03-06T00:24:19.692Z,117.37
2023-03-06T00:26:47.423Z,116.67
2023-03-06T00:29:15.163Z,110.63
2023-03-06T00:31:47.925Z,115.90
2023-03-06T00:34:16.033Z,113.87
2023-03-06T00:36:43.707Z,110.47
2023-03-06T00:39:11.505Z,108.23
2023-03-06T00:41:39.207Z,113.33
2023-03-06T00:44:06.943Z,106.87
2023-03-06T00:46:34.821Z,117.50
2023-03-06T00:49:05.176Z,112.23
2023-03-06T00:51:32.866Z,115.87
2023-03-06T00:54:00.541Z,113.57
2023-03-06T00:56:29.971Z,116.87
2023-03-06T00:58:57.680Z,128.57
2023-03-06T01:01:26.457Z,111.23
2023-03-06T01:03:54.135Z,127.93
2023-03-06T01:06:23.356Z,117.30
2023-03-06T01:08:51.050Z,117.57
2023-03-06T01:11:18.854Z,124.77
2023-03-06T01:13:46.703Z,133.07
2023-03-06T01:16:16.877Z,113.90
2023-03-06T01:18:44.614Z,114.23
2023-03-06T01:21:12.772Z,121.67
2023-03-06T01:23:42.017Z,123.23
2023-03-06T01:26:11.468Z,120.00
2023-03-06T01:28:40.490Z,122.57
2023-03-06T01:31:09.433Z,123.10
2023-03-06T01:33:37.655Z,118.43
2023-03-06T01:36:07.769Z,122.57
2023-03-06T01:38:36.194Z,118.87
2023-03-06T01:41:06.832Z,111.43
2023-03-06T01:43:36.206Z,111.87
2023-03-06T01:46:29.314Z,120.47
2023-03-06T01:48:59.843Z,111.83
2023-03-06T01:51:31.260Z,119.63
2023-03-06T01:54:02.637Z,121.47
2023-03-06T01:56:32.005Z,109.73
2023-03-06T01:58:59.841Z,113.37
2023-03-06T02:01:27.780Z,110.97
2023-03-06T02:03:56.512Z,120.50
2023-03-06T02:06:24.141Z,122.30
2023-03-06T02:08:53.910Z,118.30
2023-03-06T02:11:24.150Z,117.10
2023-03-06T02:13:55.432Z,120.13
2023-03-06T02:16:27.455Z,126.67
2023-03-06T02:18:55.645Z,118.47
2023-03-06T02:21:26.333Z,112.87
2023-03-06T02:24:08.080Z,124.00
2023-03-06T02:26:38.715Z,125.00
2023-03-06T02:29:08.612Z,116.83
2023-03-06T02:31:36.580Z,119.03
2023-03-06T02:34:07.264Z,120.13
2023-03-06T02:36:38.730Z,111.67
2023-03-06T02:39:07.838Z,113.47
2023-03-06T02:41:37.153Z,117.87
2023-03-06T02:44:05.102Z,117.60
2023-03-06T02:46:32.898Z,120.53
2023-03-06T02:49:00.520Z,119.77
2023-03-06T02:51:28.393Z,126.00
2023-03-06T02:53:56.174Z,119.97
2023-03-06T02:56:23.967Z,116.73
2023-03-06T02:58:53.092Z,106.57
2023-03-06T03:01:21.990Z,116.73
2023-03-06T03:03:49.702Z,122.57
2023-03-06T03:06:17.374Z,112.23
2023-03-06T03:08:45.557Z,107.40
2023-03-06T03:11:13.556Z,113.40
2023-03-06T03:13:44.215Z,114.83
2023-03-06T03:16:21.284Z,107.67
2023-03-06T03:18:50.962Z,119.90
2023-03-06T03:21:21.066Z,113.77
2023-03-06T03:23:49.658Z,108.63
2023-03-06T03:26:19.446Z,121.50
2023-03-06T03:28:57.609Z,107.73
2023-03-06T03:31:26.630Z,110.50
2023-03-06T03:33:54.349Z,108.83
2023-03-06T03:36:23.428Z,113.33
2023-03-06T03:38:51.241Z,106.67
2023-03-06T03:41:19.472Z,116.37
2023-03-06T03:43:47.145Z,113.23
2023-03-06T03:46:15.321Z,105.03
2023-03-06T03:48:44.616Z,109.73
2023-03-06T03:51:39.550Z,121.50
2023-03-06T03:54:07.723Z,110.67
2023-03-06T03:56:41.718Z,119.40
2023-03-06T03:59:26.535Z,109.13
2023-03-06T04:02:29.805Z,97.00
2023-03-06T04:05:14.884Z,97.97
2023-03-06T04:07:43.698Z,107.70
2023-03-06T04:10:13.689Z,108.30
2023-03-06T04:12:42.072Z,101.63
2023-03-06T04:15:12.060Z,110.03
2023-03-06T04:17:40.330Z,114.77
2023-03-06T04:20:14.435Z,114.50
2023-03-06T04:22:42.544Z,110.77
2023-03-06T04:25:12.128Z,105.63
2023-03-06T04:27:39.940Z,115.17
2023-03-06T04:30:09.225Z,109.20
2023-03-06T04:32:37.473Z,100.87
2023-03-06T04:35:06.729Z,105.83
2023-03-06T04:37:44.418Z,105.87
2023-03-06T04:40:19.428Z,104.60
2023-03-06T04:42:47.357Z,108.80
2023-03-06T04:45:15.914Z,110.60
2023-03-06T04:47:44.492Z,103.40
2023-03-06T04:50:12.946Z,108.70
2023-03-06T04:52:41.286Z,106.30
2023-03-06T04:55:13.350Z,106.60
2023-03-06T04:57:43.348Z,102.27
2023-03-06T05:00:15.829Z,106.13
2023-03-06T05:02:43.876Z,107.43
2023-03-06T05:05:12.515Z,105.73
2023-03-06T05:07:40.472Z,102.37
2023-03-06T05:10:12.221Z,101.50
2023-03-06T05:12:40.231Z,100.80
2023-03-06T05:15:09.016Z,98.67
2023-03-06T05:17:36.879Z,93.83
2023-03-06T05:20:06.138Z,89.60
2023-03-06T05:22:34.262Z,98.70
2023-03-06T05:25:01.860Z,99.37
2023-03-06T05:27:30.920Z,94.20
2023-03-06T05:29:58.756Z,94.47
2023-03-06T05:32:26.431Z,99.20
2023-03-06T05:34:54.159Z,92.03
2023-03-06T05:37:22.947Z,101.27
2023-03-06T05:39:51.131Z,89.87
2023-03-06T05:42:18.814Z,86.37
2023-03-06T05:44:47.802Z,95.87
2023-03-06T05:47:15.669Z,97.13
2023-03-06T05:49:43.269Z,91.10
2023-03-06T05:52:13.456Z,95.83
2023-03-06T05:54:41.120Z,95.90
2023-03-06T05:57:08.780Z,93.63
2023-03-06T05:59:36.538Z,102.87
2023-03-06T06:02:05.778Z,97.67
2023-03-06T06:04:33.688Z,96.60
2023-03-06T06:07:02.090Z,85.87
2023-03-06T06:09:30.207Z,94.23
2023-03-06T06:12:00.280Z,85.93
2023-03-06T06:14:27.978Z,90.53
2023-03-06T06:16:56.326Z,88.03
2023-03-06T06:19:25.715Z,91.90
2023-03-06T06:21:54.820Z,87.67
2023-03-06T06:24:24.310Z,89.43
2023-03-06T06:26:52.803Z,95.30
2023-03-06T06:29:20.967Z,93.80
2023-03-06T06:31:48.793Z,89.40
2023-03-06T06:34:16.838Z,88.10
2023-03-06T06:36:45.829Z,98.13
2023-03-06T06:39:16.213Z,89.47
2023-03-06T06:41:59.391Z,93.43
2023-03-06T06:44:30.296Z,92.47
2023-03-06T06:49:46.488Z,87.90
2023-03-06T06:52:15.492Z,95.60
2023-03-06T06:54:43.112Z,97.60
2023-03-06T06:57:11.623Z,96.30
2023-03-06T06:59:39.332Z,93.27
2023-03-06T07:02:07.129Z,90.97
2023-03-06T07:04:35.193Z,98.80
2023-03-06T07:07:03.466Z,103.13
2023-03-06T07:09:32.479Z,100.17
2023-03-06T07:12:00.201Z,94.73
2023-03-06T07:14:28.025Z,93.27
2023-03-06T07:16:55.664Z,98.57
2023-03-06T07:19:23.407Z,96.63
2023-03-06T07:21:51.654Z,97.50
2023-03-06T07:24:19.256Z,97.40
2023-03-06T07:26:48.556Z,98.77
2023-03-06T07:29:16.723Z,94.30
2023-03-06T07:31:44.688Z,105.40
2023-03-06T07:34:14.190Z,96.87
2023-03-06T07:36:42.303Z,95.87
2023-03-06T07:39:10.660Z,92.17
2023-03-06T07:41:38.306Z,103.97
2023-03-06T07:44:07.642Z,100.73
2023-03-06T07:46:35.277Z,104.20
2023-03-06T07:49:02.969Z,89.63
2023-03-06T07:51:30.670Z,104.07
2023-03-06T07:53:58.326Z,98.43
2023-03-06T07:56:26.023Z,100.83
2023-03-06T07:58:55.334Z,94.07
2023-03-06T08:01:25.131Z,110.17
2023-03-06T08:03:53.218Z,121.67
2023-03-06T08:06:23.538Z,111.10
2023-03-06T08:08:52.913Z,111.37
2023-03-06T08:11:22.586Z,106.97
2023-03-06T08:13:52.511Z,107.00
2023-03-06T08:16:21.233Z,116.03
2023-03-06T08:18:50.826Z,116.53
2023-03-06T08:21:20.625Z,114.70
2023-03-06T08:23:49.100Z,121.87
2023-03-06T08:26:19.763Z,109.57
2023-03-06T08:28:47.879Z,112.03
2023-03-06T08:31:24.784Z,107.17
2023-03-06T08:33:54.163Z,107.87
2023-03-06T08:36:22.412Z,97.60
2023-03-06T08:38:50.791Z,109.73
2023-03-06T08:41:20.281Z,106.10
2023-03-06T08:43:49.162Z,104.63
2023-03-06T08:46:18.704Z,101.00
2023-03-06T08:48:47.670Z,107.93
2023-03-06T08:51:18.130Z,106.77
2023-03-06T08:53:45.995Z,96.67
2023-03-06T08:56:18.608Z,91.27
2023-03-06T08:58:46.976Z,104.43
2023-03-06T09:01:16.226Z,104.13
2023-03-06T09:03:44.450Z,105.80
2023-03-06T09:06:12.509Z,97.57
2023-03-06T09:08:43.138Z,101.60
2023-03-06T09:11:11.403Z,103.13
2023-03-06T09:13:39.300Z,101.20
2023-03-06T09:16:08.884Z,109.27
2023-03-06T09:18:36.572Z,100.47
2023-03-06T09:21:04.739Z,102.80
2023-03-06T09:23:32.721Z,97.30
2023-03-06T09:26:03.255Z,106.37
2023-03-06T09:28:31.082Z,103.43
2023-03-06T09:30:59.252Z,109.37
2023-03-06T09:33:28.648Z,108.93
2023-03-06T09:35:57.724Z,108.47
2023-03-06T09:38:27.913Z,110.23
2023-03-06T09:41:12.835Z,109.63
2023-03-06T09:43:43.892Z,108.27
2023-03-06T09:46:23.692Z,99.33
2023-03-06T09:49:10.102Z,109.97
2023-03-06T09:51:51.134Z,112.00
2023-03-06T09:54:27.599Z,108.43
2023-03-06T09:56:56.591Z,116.47
2023-03-06T09:59:26.156Z,124.27
2023-03-06T10:02:01.620Z,131.73
2023-03-06T10:04:39.371Z,135.50
2023-03-06T10:07:14.008Z,135.33
2023-03-06T10:09:47.333Z,129.07
2023-03-06T10:12:28.525Z,150.40
2023-03-06T10:15:15.050Z,142.80
2023-03-06T10:17:43.698Z,156.13
2023-03-06T10:20:24.437Z,159.77
2023-03-06T10:23:11.140Z,154.67
2023-03-06T10:25:47.325Z,152.23
2023-03-06T10:28:18.931Z,147.97
2023-03-06T10:30:52.666Z,148.20
2023-03-06T10:33:34.418Z,147.73
2023-03-06T10:36:02.293Z,153.10
2023-03-06T10:38:37.674Z,154.23
2023-03-06T10:41:09.431Z,152.10
2023-03-06T10:43:41.085Z,145.77
2023-03-06T10:46:11.549Z,154.10
2023-03-06T10:48:42.081Z,145.50
2023-03-06T10:51:19.048Z,152.03
2023-03-06T10:53:53.479Z,147.37
2023-03-06T10:56:32.742Z,151.67
2023-03-06T10:59:10.246Z,144.20
2023-03-06T11:01:38.774Z,147.10
2023-03-06T11:04:22.725Z,158.50
2023-03-06T11:07:06.562Z,150.23
2023-03-06T11:09:34.641Z,147.63
2023-03-06T11:12:21.774Z,156.47
2023-03-06T11:15:09.384Z,144.77
2023-03-06T11:17:39.315Z,148.43
2023-03-06T11:20:18.222Z,153.23
2023-03-06T11:22:49.560Z,152.17
2023-03-06T11:25:20.873Z,147.87
2023-03-06T11:27:56.688Z,154.00
2023-03-06T11:30:31.216Z,158.10
2023-03-06T11:33:02.365Z,158.83
2023-03-06T11:35:35.288Z,162.80
2023-03-06T11:38:12.274Z,155.33
2023-03-06T11:40:44.359Z,154.70
2023-03-06T11:43:20.492Z,160.43
2023-03-06T11:45:58.031Z,162.80
2023-03-06T11:48:31.696Z,148.80
2023-03-06T11:51:07.324Z,156.47
2023-03-06T11:53:37.787Z,156.97
2023-03-06T11:56:22.654Z,158.03
2023-03-06T11:59:01.726Z,157.50
2023-03-06T12:01:36.158Z,155.17
2023-03-06T12:04:32.887Z,148.87
2023-03-06T12:07:12.287Z,132.07
2023-03-06T12:09:47.458Z,152.97
2023-03-06T12:12:45.289Z,141.20
2023-03-06T12:15:36.633Z,147.93
2023-03-06T12:18:20.321Z,137.23
2023-03-06T12:20:58.621Z,134.17
2023-03-06T12:23:46.425Z,129.13
2023-03-06T12:26:37.111Z,140.00
2023-03-06T12:29:23.529Z,130.03
2023-03-06T12:32:01.903Z,140.93
2023-03-06T12:34:45.456Z,141.10
2023-03-06T12:37:25.235Z,132.30
2023-03-06T12:40:14.318Z,129.70
2023-03-06T12:43:01.583Z,139.43
2023-03-06T12:45:32.753Z,136.63
2023-03-06T12:48:01.962Z,138.93
2023-03-06T12:50:32.767Z,143.60
2023-03-06T12:53:03.910Z,140.33
2023-03-06T12:55:39.609Z,151.17
2023-03-06T12:58:35.419Z,146.53
2023-03-06T13:01:06.063Z,148.23
2023-03-06T13:03:49.408Z,148.83
2023-03-06T13:06:45.060Z,150.10
2023-03-06T13:09:20.720Z,150.20
2023-03-06T13:12:05.488Z,157.90
2023-03-06T13:14:54.848Z,140.97
2023-03-06T13:17:28.587Z,149.93
2023-03-06T13:20:27.833Z,151.37
2023-03-06T13:22:57.151Z,147.80
2023-03-06T13:25:49.625Z,140.13
2023-03-06T13:28:25.859Z,142.20
2023-03-06T13:30:53.702Z,152.57
2023-03-06T13:33:54.659Z,151.00
2023-03-06T13:36:28.214Z,143.33
2023-03-06T13:39:12.595Z,137.90
2023-03-06T13:41:58.849Z,154.80
2023-03-06T13:44:49.559Z,140.40
2023-03-06T13:48:10.668Z,154.47
2023-03-06T13:50:36.309Z,152.03
2023-03-06T13:53:19.546Z,145.40
2023-03-06T13:56:00.858Z,141.20
2023-03-06T13:58:44.038Z,156.17
2023-03-06T14:01:37.204Z,155.93
2023-03-06T14:04:27.225Z,148.57
2023-03-06T14:07:06.519Z,147.53
2023-03-06T14:09:36.618Z,138.00
2023-03-06T14:12:15.793Z,139.47
2023-03-06T14:14:45.635Z,147.33
2023-03-06T14:17:23.942Z,144.70
2023-03-06T14:19:52.443Z,135.87
2023-03-06T14:22:24.731Z,131.27
2023-03-06T14:24:59.686Z,145.90
2023-03-06T14:27:43.800Z,140.60
2023-03-06T14:30:15.557Z,140.13
2023-03-06T14:32:44.287Z,139.00
2023-03-06T14:35:29.394Z,138.93
2023-03-06T14:37:59.883Z,136.77
2023-03-06T14:40:32.334Z,143.77
2023-03-06T14:43:26.684Z,147.40
2023-03-06T14:45:57.377Z,138.67
2023-03-06T14:48:27.090Z,141.10
2023-03-06T14:50:56.785Z,139.23
2023-03-06T14:53:27.935Z,147.40
2023-03-06T14:55:58.902Z,140.07
2023-03-06T14:58:36.512Z,133.87
2023-03-06T15:01:06.967Z,117.43
2023-03-06T15:03:42.383Z,126.40
2023-03-06T15:06:12.910Z,128.33
2023-03-06T15:08:43.630Z,123.17
2023-03-06T15:11:11.340Z,130.80
2023-03-06T15:13:41.260Z,127.97
2023-03-06T15:16:23.474Z,132.37
2023-03-06T15:18:58.975Z,131.67
2023-03-06T15:21:28.529Z,135.03
2023-03-06T15:23:58.056Z,135.40
2023-03-06T15:26:29.518Z,128.23
2023-03-06T15:29:12.761Z,131.73
2023-03-06T15:31:41.905Z,121.03
2023-03-06T15:34:23.297Z,139.63
2023-03-06T15:36:54.974Z,110.53
2023-03-06T15:39:35.181Z,110.97
2023-03-06T15:42:05.958Z,106.63
2023-03-06T15:44:35.188Z,107.43
2023-03-06T15:47:08.764Z,113.67
2023-03-06T15:49:37.686Z,109.30
2023-03-06T15:52:05.366Z,112.13
2023-03-06T15:54:33.255Z,114.67
2023-03-06T15:57:01.204Z,110.13
2023-03-06T15:59:32.878Z,122.60
2023-03-06T16:02:05.479Z,116.63
2023-03-06T16:04:33.349Z,117.07
2023-03-06T16:07:01.023Z,111.87
2023-03-06T16:09:28.637Z,113.00
2023-03-06T16:11:56.233Z,103.07
2023-03-06T16:14:24.448Z,109.50
2023-03-06T16:16:53.879Z,112.30
2023-03-06T16:19:26.644Z,109.67
2023-03-06T16:21:55.582Z,108.87
2023-03-06T16:24:23.555Z,110.13
2023-03-06T16:26:52.749Z,101.83
2023-03-06T16:29:22.365Z,102.70
2023-03-06T16:31:50.116Z,105.17
2023-03-06T16:34:20.020Z,101.10
2023-03-06T16:36:50.242Z,113.57
2023-03-06T16:39:20.195Z,102.63
2023-03-06T16:41:49.286Z,109.13
2023-03-06T16:44:17.296Z,107.33
2023-03-06T16:46:47.403Z,112.73
2023-03-06T16:49:17.304Z,113.77
2023-03-06T16:51:45.622Z,106.60
2023-03-06T16:54:14.658Z,121.93
2023-03-06T16:56:42.908Z,112.20
2023-03-06T16:59:11.123Z,102.63
2023-03-06T17:01:40.516Z,123.07
2023-03-06T17:04:08.234Z,122.53
2023-03-06T17:06:36.610Z,99.63
2023-03-06T17:09:04.960Z,110.93
2023-03-06T17:11:34.138Z,111.53
2023-03-06T17:14:02.598Z,108.73
2023-03-06T17:16:30.231Z,110.23
2023-03-06T17:18:58.124Z,110.53
2023-03-06T17:21:26.922Z,109.53
2023-03-06T17:23:54.497Z,107.57
2023-03-06T17:26:22.179Z,110.87
2023-03-06T17:28:51.195Z,106.60
2023-03-06T17:31:20.916Z,115.40
2023-03-06T17:33:48.853Z,118.30
2023-03-06T17:36:17.319Z,115.23
2023-03-06T17:38:45.182Z,103.27
2023-03-06T17:41:13.364Z,104.10
2023-03-06T17:43:41.553Z,107.77
2023-03-06T17:46:12.592Z,113.20
2023-03-06T17:48:40.825Z,106.63
2023-03-06T17:51:09.252Z,111.03
2023-03-06T17:53:37.244Z,101.03
2023-03-06T17:56:06.564Z,104.43
2023-03-06T17:58:34.763Z,105.80
2023-03-06T18:01:12.911Z,103.87
2023-03-06T18:03:44.230Z,102.03
2023-03-06T18:06:12.051Z,116.87
2023-03-06T18:08:40.864Z,123.60
2023-03-06T18:11:10.558Z,119.57
2023-03-06T18:13:40.877Z,122.87
2023-03-06T18:16:09.400Z,111.33
2023-03-06T18:18:38.778Z,113.57
2023-03-06T18:21:08.188Z,122.20
2023-03-06T18:23:36.864Z,114.83
2023-03-06T18:26:11.400Z,125.33
2023-03-06T18:28:42.304Z,126.67
2023-03-06T18:31:15.526Z,123.30
2023-03-06T18:33:44.706Z,124.87
2023-03-06T18:36:12.309Z,120.87
2023-03-06T18:38:41.269Z,117.90
2023-03-06T18:41:09.511Z,126.70
2023-03-06T18:43:37.442Z,122.50
2023-03-06T18:46:06.557Z,129.20
2023-03-06T18:48:34.411Z,118.93
2023-03-06T18:51:06.816Z,120.37
2023-03-06T18:53:34.747Z,117.23
2023-03-06T18:56:03.277Z,118.17
2023-03-06T18:58:30.918Z,115.63
2023-03-06T19:00:59.681Z,112.23
2023-03-06T19:03:27.901Z,109.33
2023-03-06T19:05:55.759Z,124.17
2023-03-06T19:08:24.848Z,120.27
2023-03-06T19:10:52.660Z,110.60
2023-03-06T19:13:20.311Z,113.87
2023-03-06T19:15:49.841Z,117.40
2023-03-06T19:18:19.109Z,116.93
2023-03-06T19:20:46.742Z,117.23
2023-03-06T19:23:14.397Z,108.47
2023-03-06T19:25:43.425Z,119.50
2023-03-06T19:28:11.058Z,111.67
2023-03-06T19:30:40.908Z,111.00
2023-03-06T19:33:08.541Z,115.83
2023-03-06T19:35:37.552Z,119.03
2023-03-06T19:38:05.580Z,121.73
2023-03-06T19:40:34.002Z,116.37
2023-03-06T19:43:03.936Z,111.87
2023-03-06T19:45:31.545Z,115.07
2023-03-06T19:48:00.800Z,111.97
2023-03-06T19:50:29.655Z,114.90
2023-03-06T19:52:57.653Z,123.30
2023-03-06T19:55:26.322Z,118.77
2023-03-06T19:57:54.299Z,119.63
2023-03-06T20:00:23.558Z,114.63
2023-03-06T20:02:51.332Z,118.33
2023-03-06T20:05:19.065Z,123.67
2023-03-06T20:07:46.727Z,113.50
2023-03-06T20:10:14.377Z,120.53
2023-03-06T20:12:42.040Z,111.50
2023-03-06T20:15:10.590Z,116.43
2023-03-06T20:17:41.027Z,118.10
2023-03-06T20:20:10.761Z,113.43
2023-03-06T20:22:38.611Z,112.27
2023-03-06T20:25:06.992Z,112.20
2023-03-06T20:27:34.937Z,113.53
2023-03-06T20:30:02.665Z,118.70
2023-03-06T20:32:30.769Z,126.40
2023-03-06T20:34:59.914Z,113.93
2023-03-06T20:37:27.619Z,120.57
2023-03-06T20:39:55.239Z,117.80
2023-03-06T20:42:22.893Z,110.43
2023-03-06T20:44:50.488Z,108.43
2023-03-06T20:47:18.200Z,109.77
2023-03-06T20:49:45.855Z,112.17
2023-03-06T20:52:14.979Z,113.00
2023-03-06T20:54:42.625Z,100.53
2023-03-06T20:57:10.402Z,111.07
2023-03-06T20:59:38.101Z,104.13
2023-03-06T21:02:06.467Z,111.13
2023-03-06T21:04:34.183Z,107.83
2023-03-06T21:07:01.805Z,99.27
2023-03-06T21:09:32.756Z,104.67
2023-03-06T21:12:00.417Z,103.63
2023-03-06T21:14:28.044Z,103.33
2023-03-06T21:16:55.678Z,100.63
2023-03-06T21:19:23.326Z,99.83
2023-03-06T21:21:51.182Z,106.07
2023-03-06T21:24:20.965Z,98.97
2023-03-06T21:26:51.127Z,103.20
2023-03-06T21:29:18.842Z,103.53
2023-03-06T21:31:46.506Z,114.83
2023-03-06T21:34:14.217Z,104.80
2023-03-06T21:36:42.862Z,116.60
2023-03-06T21:39:11.484Z,98.23
2023-03-06T21:41:40.423Z,105.93
2023-03-06T21:44:09.502Z,94.77
2023-03-06T21:46:37.219Z,106.77
2023-03-06T21:49:06.062Z,97.20
2023-03-06T21:51:34.205Z,100.00
2023-03-06T21:54:02.990Z,104.43
2023-03-06T21:56:30.694Z,102.10
2023-03-06T21:58:58.432Z,103.07
2023-03-06T22:01:29.317Z,102.17
2023-03-06T22:03:58.304Z,96.00
2023-03-06T22:06:27.917Z,101.87
2023-03-06T22:08:57.460Z,97.07
2023-03-06T22:11:26.674Z,103.63
2023-03-06T22:13:54.561Z,108.50
2023-03-06T22:16:22.435Z,92.80
2023-03-06T22:18:53.042Z,105.50
2023-03-06T22:21:22.790Z,93.53
2023-03-06T22:23:51.060Z,91.87
2023-03-06T22:26:18.974Z,87.50
2023-03-06T22:28:46.874Z,89.20
2023-03-06T22:31:16.149Z,91.67
2023-03-06T22:33:43.966Z,94.03
2023-03-06T22:36:15.381Z,99.97
2023-03-06T22:38:44.760Z,97.00
2023-03-06T22:41:13.453Z,96.80
2023-03-06T22:43:42.474Z,95.90
2023-03-06T22:46:12.111Z,98.73
2023-03-06T22:48:39.774Z,98.13
2023-03-06T22:51:10.292Z,99.30
2023-03-06T22:53:39.875Z,96.17
2023-03-06T22:56:10.775Z,101.13
2023-03-06T22:58:38.904Z,97.50
2023-03-06T23:01:08.434Z,99.63
2023-03-06T23:03:37.315Z,94.03
2023-03-06T23:06:09.596Z,97.33
2023-03-06T23:08:38.678Z,88.57
2023-03-06T23:11:09.259Z,98.47
2023-03-06T23:13:56.033Z,85.90
2023-03-06T23:16:42.252Z,82.03
2023-03-06T23:19:28.466Z,88.53
2023-03-06T23:22:14.885Z,90.27
2023-03-06T23:25:02.652Z,90.73
2023-03-06T23:27:30.278Z,91.30
2023-03-06T23:29:58.921Z,93.40
2023-03-06T23:32:26.746Z,88.37
2023-03-06T23:34:54.377Z,92.10
2023-03-06T23:37:22.069Z,96.30
2023-03-06T23:39:49.891Z,98.03
2023-03-06T23:42:19.854Z,95.50
2023-03-06T23:44:47.475Z,92.67
2023-03-06T23:47:17.104Z,88.90
2023-03-06T23:49:44.784Z,87.27
2023-03-06T23:52:12.561Z,97.47
2023-03-06T23:54:40.314Z,90.07
2023-03-06T23:57:07.974Z,88.80
2023-03-06T23:59:37.030Z,89.40
